METAR Formatted Surface Weather Observation
Issued by NWS Honolulu, HI

Home | Current Version | Previous Version | Text Only | Print | Product List | Glossary On
Versions: 1 2 3 4
000
SAHW31 PHFO 251756
MTRHNL
METAR PHNL 251753Z 05006KT 10SM FEW026 SCT042 SCT070 26/21 A2995 RMK
AO2 SLP140 VCSH NE-SE 60001 T02560206 10261 20239 51012



USA.gov is the U.S. government's official web portal to all federal, state and local government web resources and services.